PDT,Max TemperatureF,Mean TemperatureF,Min TemperatureF,Max Dew PointF,MeanDew PointF,Min DewpointF,Max Humidity, Mean Humidity, Min Humidity, Max Sea Level PressureIn, Mean Sea Level PressureIn, Min Sea Level PressureIn, Max VisibilityMiles, Mean VisibilityMiles, Min VisibilityMiles, Max Wind SpeedMPH, Mean Wind SpeedMPH, Max Gust SpeedMPH,PrecipitationIn, CloudCover, Events, WindDirDegrees
2013-3-1,39,36,32,39,36,31,100,99,97,30.25,30.23,30.22,,,,4,2,,0.91,,,357
2013-3-2,43,39,35,42,39,36,100,98,94,30.22,30.06,29.97,,,,2,2,,0.55,,,351
2013-3-3,50,40,29,36,32,27,100,85,37,30.33,30.22,30.10,,,,6,2,,0.00,,,9
2013-3-4,52,39,26,32,28,23,100,74,23,30.34,30.21,30.06,,,,5,2,,0.01,,,354
2013-3-5,46,38,31,38,30,25,97,70,39,30.04,29.91,29.83,,,,8,5,,0.08,,,348
2013-3-6,53,44,36,40,35,31,98,76,34,29.84,29.71,29.62,,,,9,4,,0.00,,,346
2013-3-7,45,42,39,40,39,39,98,92,73,30.12,30.02,29.86,,,,5,1,,0.02,,,71
2013-3-8,54,44,33,39,37,33,100,83,38,30.24,30.13,30.09,,,,8,2,,0.00,,,59
2013-3-9,54,41,28,38,34,29,100,80,44,30.48,30.39,30.26,,,,8,3,,0.00,,,71
2013-3-10,50,44,37,39,38,37,98,86,61,30.47,30.42,30.36,,,,10,2,,0.00,,,134
2013-3-11,52,44,35,39,36,29,97,79,31,30.43,30.35,30.18,,,,9,2,,0.03,,,285
2013-3-12,40,36,32,39,36,32,100,98,94,30.16,30.03,29.97,,,,4,2,,0.87,,,331
2013-3-13,50,42,34,48,45,40,99,96,89,30.12,30.07,30.00,,,,9,4,20,0.51,,,118
2013-3-14,47,44,41,46,43,41,99,96,92,30.10,30.04,30.00,,,,7,2,,0.43,,,322
2013-3-15,50,46,41,47,44,41,100,96,88,30.19,30.14,30.09,,,,6,2,,0.12,,,309
2013-3-16,47,42,38,44,41,38,100,92,67,30.09,29.87,29.76,,,,12,4,22,0.12,,,154
2013-3-17,50,40,31,38,34,30,100,82,38,30.08,30.02,29.85,,,,12,3,18,0.01,,,108
2013-3-18,51,42,32,37,34,29,99,81,32,30.24,30.09,29.99,,,,9,4,,0.20,,,163
2013-3-19,47,38,28,38,31,26,100,81,34,30.25,30.01,29.64,,,,6,3,,0.08,,,343
2013-3-20,54,43,32,41,36,33,100,87,49,29.80,29.47,29.31,,,,17,5,31,0.67,,,299
2013-3-21,47,38,30,36,31,27,100,79,36,30.15,30.05,29.85,,,,12,3,18,0.00,,,104
2013-3-22,50,38,27,31,27,16,100,71,16,30.36,30.26,30.16,,,,7,2,,0.00,,,57
2013-3-23,50,39,28,32,27,21,97,69,26,30.42,30.36,30.30,,,,9,3,,0.00,,,20
2013-3-24,53,42,30,34,28,21,94,64,20,30.33,30.25,30.16,,,,7,2,,0.00,,,342
2013-3-25,61,48,36,36,33,27,90,65,20,30.17,30.06,29.96,,,,8,3,,0.00,,,19
2013-3-26,59,46,32,39,35,31,97,72,31,30.03,30.00,29.97,,,,7,3,,0.00,,,47
2013-3-27,64,48,32,42,36,31,99,72,24,30.01,29.97,29.91,,,,10,3,,0.00,,,67
2013-3-28,60,50,39,43,39,37,93,72,41,30.14,30.06,30.02,,,,8,3,,0.00,,,47
2013-3-29,62,48,34,44,39,35,99,78,40,30.27,30.22,30.15,,,,8,3,,0.00,,,71
2013-3-30,67,50,34,44,38,33,97,70,18,30.32,30.23,30.13,,,,7,3,,0.00,,,24
2013-3-31,74,55,36,44,37,31,91,60,12,30.14,30.03,29.92,,,,10,3,,0.00,,,18